Terminal Aerodrome Forecast
Issued by NWS

Home | Current Version | Previous Version | Graphics & Text | Print | Product List | Glossary Off
Versions: 1 2 3 4 5 6 7 8 9 10 11 12 13 14 15 16 17 18 19 20 21 22 23 24 25 26 27 28 29 30 31 32

000
FTUS43 KLOT 291437 AAA
TAFMDW
TAF AMD
KMDW 291437Z 2915/3012 03003KT P6SM FEW015 SCT050 BKN250
     FM291600 07010KT P6SM VCTS BKN035CB
      TEMPO 2917/2921 4SM -SHRA OVC030
     FM292100 06010KT P6SM VCSH BKN040
     FM300200 05007KT P6SM VCSH FEW020 BKN045=

USA.gov is the U.S. government's official web portal to all federal, state and local government web resources and services.